Time;durP1;ratioP1;P1;durP2;ratioP2;P2;SDS_P1;SDS_P2;PMS_P1;PMS_P2;Temp;Humidity;BMP_temperature;BMP_pressure;BME280_temperature;BME280_humidity;BME280_pressure;Samples;Min_cycle;Max_cycle;Signal;HPM_P1;HPM_P2
2022/10/11 00:00:25;;;;;;;15.93;8.93;;;12.70;99.90;;;;;;5072504;28;20016;-56
2022/10/11 00:02:51;;;;;;;12.95;8.43;;;12.80;99.90;;;;;;5071821;28;20021;-54
2022/10/11 00:05:17;;;;;;;18.63;8.70;;;12.70;99.90;;;;;;5072532;28;20024;-55
2022/10/11 00:07:42;;;;;;;20.40;7.82;;;12.70;99.90;;;;;;5072298;28;20024;-57
2022/10/11 00:10:09;;;;;;;15.75;8.00;;;12.70;99.90;;;;;;5071970;28;20086;-55
2022/10/11 00:12:35;;;;;;;19.35;8.30;;;12.60;99.90;;;;;;5072243;28;20376;-56
2022/10/11 00:15:01;;;;;;;20.85;7.90;;;12.60;99.90;;;;;;5072271;28;20021;-55
2022/10/11 00:17:27;;;;;;;14.18;8.35;;;12.60;99.90;;;;;;5072260;28;20031;-55
2022/10/11 00:19:53;;;;;;;13.10;7.35;;;12.50;99.90;;;;;;5072143;28;20021;-57
2022/10/11 00:22:18;;;;;;;13.77;7.35;;;12.50;99.90;;;;;;5072225;28;20028;-53
2022/10/11 00:24:44;;;;;;;12.43;8.55;;;12.50;99.90;;;;;;5072194;28;20035;-54
2022/10/11 00:27:10;;;;;;;15.38;8.45;;;12.50;99.90;;;;;;5071815;28;20035;-57
2022/10/11 00:29:37;;;;;;;13.85;8.52;;;12.60;99.90;;;;;;5071858;28;20263;-54
2022/10/11 00:32:03;;;;;;;14.20;8.55;;;12.60;99.90;;;;;;5071832;28;20031;-53
2022/10/11 00:34:28;;;;;;;18.77;9.02;;;12.60;99.90;;;;;;5072067;28;20012;-54
2022/10/11 00:36:54;;;;;;;19.52;9.88;;;12.60;99.90;;;;;;5071693;28;20069;-56
2022/10/11 00:39:20;;;;;;;10.93;8.25;;;12.50;99.90;;;;;;5071796;28;20020;-52
2022/10/11 00:41:46;;;;;;;21.15;8.65;;;12.50;99.90;;;;;;5071713;28;20020;-56
2022/10/11 00:44:18;;;;;;;15.65;8.80;;;12.50;99.90;;;;;;5071860;28;20028;-52
2022/10/11 00:46:52;;;;;;;16.40;7.85;;;12.40;99.90;;;;;;5071749;28;20024;-56
2022/10/11 00:49:33;;;;;;;17.33;7.75;;;12.40;99.90;;;;;;5071458;28;20013;-56
2022/10/11 00:52:10;;;;;;;13.95;8.23;;;12.40;99.90;;;;;;5071428;28;20506;-56
2022/10/11 00:54:39;;;;;;;21.25;9.00;;;12.30;99.90;;;;;;5071517;28;20020;-55
2022/10/11 00:57:08;;;;;;;18.40;7.90;;;12.20;99.90;;;;;;5071511;28;20112;-53
2022/10/11 00:59:38;;;;;;;20.52;8.77;;;12.20;99.90;;;;;;5071383;28;20024;-56
2022/10/11 01:02:05;;;;;;;21.35;8.48;;;12.10;99.90;;;;;;5071116;28;20419;-55
2022/10/11 01:04:31;;;;;;;15.50;8.10;;;12.10;99.90;;;;;;5071269;28;20032;-53
2022/10/11 01:06:57;;;;;;;17.73;7.93;;;12.00;99.90;;;;;;5071235;28;20039;-53
2022/10/11 01:09:25;;;;;;;11.48;8.70;;;11.90;99.90;;;;;;5071060;28;20396;-53
2022/10/11 01:11:55;;;;;;;15.75;8.20;;;11.80;99.90;;;;;;5071433;28;20044;-55
2022/10/11 01:14:51;;;;;;;12.07;8.68;;;11.70;99.90;;;;;;5070356;28;20025;-55
2022/10/11 01:17:38;;;;;;;18.55;9.25;;;11.60;99.90;;;;;;5070883;28;20012;-56
2022/10/11 01:20:33;;;;;;;21.08;9.10;;;11.60;99.90;;;;;;5071069;28;20048;-54
2022/10/11 01:23:17;;;;;;;;;;;11.40;99.90;;;;;;5071020;28;20042;-56
2022/10/11 01:26:03;;;;;;;14.80;7.60;;;11.40;99.90;;;;;;5070878;28;19936;-53
2022/10/11 01:28:48;;;;;;;23.95;8.40;;;11.40;99.90;;;;;;5070843;28;20360;-56
2022/10/11 01:31:25;;;;;;;11.45;9.15;;;11.20;99.90;;;;;;5070588;28;20017;-56
2022/10/11 01:34:19;;;;;;;12.75;8.00;;;11.20;99.90;;;;;;5070754;28;20020;-56
2022/10/11 01:37:04;;;;;;;18.45;8.63;;;11.20;99.90;;;;;;5070212;28;20028;-55
2022/10/11 01:39:47;;;;;;;21.50;8.85;;;11.10;99.90;;;;;;5070608;28;20033;-55
2022/10/11 01:42:15;;;;;;;17.27;8.00;;;11.20;99.90;;;;;;5070481;28;20060;-54
2022/10/11 01:44:45;;;;;;;15.30;9.18;;;11.20;99.90;;;;;;5070690;28;20361;-51
2022/10/11 01:47:11;;;;;;;16.52;9.10;;;11.20;99.90;;;;;;5070393;28;20020;-54
2022/10/11 01:49:36;;;;;;;12.00;8.20;;;11.20;99.90;;;;;;5070403;28;20552;-57
2022/10/11 01:52:05;;;;;;;14.23;8.55;;;11.20;99.90;;;;;;5070891;28;20025;-53
2022/10/11 01:54:51;;;;;;;20.90;9.25;;;11.30;99.90;;;;;;5070472;28;20356;-53
2022/10/11 01:57:20;;;;;;;13.80;8.68;;;11.40;99.90;;;;;;5070465;28;20044;-55
2022/10/11 02:00:10;;;;;;;11.02;8.32;;;11.50;99.90;;;;;;5070639;28;20031;-56
2022/10/11 02:03:01;;;;;;;14.35;8.30;;;11.50;99.90;;;;;;5070365;28;20024;-53
2022/10/11 02:05:49;;;;;;;13.75;8.20;;;11.60;99.90;;;;;;5070243;28;20060;-52
2022/10/11 02:08:17;;;;;;;15.27;9.35;;;11.70;99.90;;;;;;5070209;28;20074;-54
2022/10/11 02:11:01;;;;;;;14.90;9.30;;;11.80;99.90;;;;;;5070279;28;20056;-54
2022/10/11 02:13:39;;;;;;;;;;;11.70;99.90;;;;;;5070852;28;20295;-55
2022/10/11 02:16:13;;;;;;;18.17;8.30;;;11.70;99.90;;;;;;5070086;28;19912;-54
2022/10/11 02:18:46;;;;;;;17.60;8.70;;;11.60;99.90;;;;;;5070192;28;20021;-55
2022/10/11 02:21:16;;;;;;;10.38;8.52;;;11.60;99.90;;;;;;5070193;28;20124;-57
2022/10/11 02:23:47;;;;;;;12.65;8.93;;;11.40;99.90;;;;;;5070142;28;20066;-57
2022/10/11 02:26:14;;;;;;;13.93;8.73;;;11.30;99.90;;;;;;5073881;28;20028;-56
2022/10/11 02:28:43;;;;;;;11.73;8.65;;;11.20;99.90;;;;;;5074376;28;20024;-53
2022/10/11 02:31:10;;;;;;;24.55;8.48;;;11.10;99.90;;;;;;5074043;28;20517;-53
2022/10/11 02:33:49;;;;;;;13.20;7.88;;;11.00;99.90;;;;;;5074219;28;20025;-53
2022/10/11 02:36:29;;;;;;;13.70;8.52;;;10.90;99.90;;;;;;5074201;28;20017;-56
2022/10/11 02:39:00;;;;;;;21.38;7.80;;;10.90;99.90;;;;;;5072707;28;20388;-55
2022/10/11 02:41:35;;;;;;;18.58;7.65;;;10.80;99.90;;;;;;5074249;28;20396;-55
2022/10/11 02:44:22;;;;;;;17.27;8.00;;;10.80;99.90;;;;;;5074013;28;20420;-53
2022/10/11 02:46:49;;;;;;;13.00;6.93;;;10.80;99.90;;;;;;5073847;28;20028;-54
2022/10/11 02:49:17;;;;;;;12.43;7.25;;;10.70;99.90;;;;;;5073810;28;20335;-55
2022/10/11 02:51:43;;;;;;;12.50;6.85;;;10.70;99.90;;;;;;5072555;28;20020;-52
2022/10/11 02:54:08;;;;;;;9.57;7.45;;;10.60;99.90;;;;;;5073569;28;20376;-55
2022/10/11 02:56:34;;;;;;;12.88;7.15;;;10.50;99.90;;;;;;5073809;28;20066;-52
2022/10/11 02:59:00;;;;;;;13.65;7.75;;;10.40;99.90;;;;;;5073717;28;20025;-53
2022/10/11 03:01:25;;;;;;;10.40;7.25;;;10.40;99.90;;;;;;5073489;28;20031;-52
2022/10/11 03:03:51;;;;;;;10.05;6.90;;;10.30;99.90;;;;;;5073628;28;20016;-55
2022/10/11 03:06:17;;;;;;;9.05;6.70;;;10.30;99.90;;;;;;5073875;28;20032;-56
2022/10/11 03:08:42;;;;;;;9.57;6.65;;;10.20;99.90;;;;;;5073674;28;20048;-54
2022/10/11 03:11:08;;;;;;;10.70;6.47;;;10.20;99.90;;;;;;5071971;28;20115;-54
2022/10/11 03:13:35;;;;;;;8.63;7.00;;;10.20;99.90;;;;;;5073342;28;20024;-52
2022/10/11 03:16:00;;;;;;;7.68;6.47;;;10.20;99.90;;;;;;5073011;28;20074;-54
2022/10/11 03:18:26;;;;;;;16.25;7.10;;;10.20;99.90;;;;;;5073426;28;20021;-51
2022/10/11 03:20:52;;;;;;;13.85;7.50;;;10.20;99.90;;;;;;5073262;28;20077;-55
2022/10/11 03:23:17;;;;;;;15.07;6.80;;;10.20;99.90;;;;;;5073102;28;20021;-52
2022/10/11 03:25:44;;;;;;;24.35;7.53;;;10.20;99.90;;;;;;5073234;28;20028;-56
2022/10/11 03:28:10;;;;;;;13.82;7.75;;;10.20;99.90;;;;;;5073088;28;20024;-52
2022/10/11 03:30:36;;;;;;;12.68;6.82;;;10.10;99.90;;;;;;5073029;28;20031;-53
2022/10/11 03:33:02;;;;;;;9.27;7.57;;;10.10;99.90;;;;;;5072831;28;20017;-55
2022/10/11 03:35:27;;;;;;;9.35;7.10;;;10.10;99.90;;;;;;5072732;28;20025;-51
2022/10/11 03:37:53;;;;;;;15.50;7.38;;;10.00;99.90;;;;;;5072391;28;20029;-55
2022/10/11 03:40:19;;;;;;;12.48;7.40;;;10.00;99.90;;;;;;5072894;28;20360;-54
2022/10/11 03:42:44;;;;;;;14.13;6.75;;;10.00;99.90;;;;;;5072799;28;20025;-55
2022/10/11 03:45:10;;;;;;;7.72;6.97;;;10.10;99.90;;;;;;5072645;28;20025;-52
2022/10/11 03:47:37;;;;;;;15.48;7.13;;;10.20;99.90;;;;;;5072916;28;20383;-53
2022/10/11 03:50:05;;;;;;;14.60;7.18;;;10.20;99.90;;;;;;5072505;28;20093;-56
2022/10/11 03:52:31;;;;;;;11.50;7.50;;;10.20;99.90;;;;;;5072672;28;20013;-55
2022/10/11 03:54:57;;;;;;;12.32;7.88;;;10.30;99.90;;;;;;5072645;28;20033;-54
2022/10/11 03:57:22;;;;;;;18.70;8.32;;;10.40;99.90;;;;;;5072598;28;20024;-56
2022/10/11 03:59:48;;;;;;;9.55;7.75;;;10.40;99.90;;;;;;5072419;28;20078;-52
2022/10/11 04:02:15;;;;;;;20.00;7.88;;;10.40;99.90;;;;;;5072445;28;20029;-52
2022/10/11 04:04:40;;;;;;;15.73;7.68;;;10.60;99.90;;;;;;5072538;28;20021;-55
2022/10/11 04:07:06;;;;;;;19.38;7.22;;;10.60;99.90;;;;;;5072317;28;20224;-56
2022/10/11 04:09:32;;;;;;;11.63;7.90;;;10.70;99.90;;;;;;5070926;28;20140;-52
2022/10/11 04:11:58;;;;;;;14.65;7.35;;;10.70;99.90;;;;;;5071029;28;20119;-52
2022/10/11 04:14:24;;;;;;;20.08;7.22;;;10.80;99.90;;;;;;5072731;28;20064;-54
2022/10/11 04:16:49;;;;;;;9.82;7.88;;;10.80;99.90;;;;;;5072269;28;20016;-52
2022/10/11 04:19:15;;;;;;;11.20;7.35;;;10.80;99.90;;;;;;5072190;28;20033;-54
2022/10/11 04:21:41;;;;;;;10.68;6.18;;;11.20;99.90;;;;;;5072161;28;20020;-53
2022/10/11 04:24:08;;;;;;;23.88;7.10;;;11.30;99.90;;;;;;5072339;28;20119;-53
2022/10/11 04:26:34;;;;;;;9.70;6.53;;;11.30;99.90;;;;;;5072051;28;20020;-53
2022/10/11 04:28:59;;;;;;;15.68;6.55;;;11.40;99.90;;;;;;5071795;28;20546;-55
2022/10/11 04:31:25;;;;;;;17.27;7.65;;;11.50;99.90;;;;;;5072162;28;20020;-53
2022/10/11 04:33:50;;;;;;;9.85;6.40;;;11.60;99.90;;;;;;5071933;28;20017;-56
2022/10/11 04:36:16;;;;;;;12.93;6.47;;;11.60;99.90;;;;;;5071710;28;20033;-56
2022/10/11 04:38:42;;;;;;;14.32;6.38;;;11.70;99.90;;;;;;5070600;28;20024;-56
2022/10/11 04:41:10;;;;;;;13.32;6.85;;;11.70;99.90;;;;;;5071518;28;20102;-53
2022/10/11 04:43:36;;;;;;;17.95;9.05;;;11.80;99.90;;;;;;5071550;28;20388;-55
2022/10/11 04:46:02;;;;;;;13.52;7.45;;;11.80;99.90;;;;;;5071671;28;20110;-55
2022/10/11 04:48:27;;;;;;;16.42;7.28;;;11.90;99.90;;;;;;5071578;28;20037;-54
2022/10/11 04:50:53;;;;;;;9.68;6.53;;;11.90;99.90;;;;;;5071469;28;20031;-54
2022/10/11 04:53:19;;;;;;;13.57;6.72;;;12.00;99.90;;;;;;5071491;28;20667;-54
2022/10/11 04:55:55;;;;;;;12.23;7.10;;;12.00;99.90;;;;;;5071708;28;20021;-55
2022/10/11 04:58:21;;;;;;;15.82;7.22;;;12.00;99.90;;;;;;5071399;28;20127;-52
2022/10/11 05:00:47;;;;;;;12.88;6.03;;;12.00;99.90;;;;;;5071388;28;20107;-54
2022/10/11 05:03:12;;;;;;;13.75;5.25;;;12.10;99.90;;;;;;5071399;28;20021;-52
2022/10/11 05:05:38;;;;;;;14.52;7.25;;;12.10;99.90;;;;;;5071316;28;20024;-55
2022/10/11 05:08:04;;;;;;;20.58;8.10;;;12.10;99.90;;;;;;5070990;28;20024;-54
2022/10/11 05:10:29;;;;;;;16.17;8.38;;;12.00;99.90;;;;;;5069580;28;20079;-51
2022/10/11 05:12:55;;;;;;;14.25;7.97;;;11.90;99.90;;;;;;5070954;28;20032;-55
2022/10/11 05:15:20;;;;;;;14.95;8.35;;;11.90;99.90;;;;;;5069804;28;20027;-53
2022/10/11 05:17:46;;;;;;;19.05;8.18;;;11.90;99.90;;;;;;5071038;28;20383;-53
2022/10/11 05:20:12;;;;;;;16.75;7.97;;;11.90;99.90;;;;;;5070732;28;20028;-55
2022/10/11 05:22:37;;;;;;;18.95;7.80;;;11.80;99.90;;;;;;5071054;28;20033;-55
2022/10/11 05:25:03;;;;;;;20.50;7.47;;;11.80;99.90;;;;;;5070609;28;20028;-55
2022/10/11 05:27:29;;;;;;;15.57;8.50;;;11.80;99.90;;;;;;5070877;28;20032;-54
2022/10/11 05:29:54;;;;;;;12.25;7.47;;;11.80;99.90;;;;;;5070610;28;20025;-55
2022/10/11 05:32:20;;;;;;;17.65;6.72;;;11.80;99.90;;;;;;5070898;28;20430;-51
2022/10/11 05:34:45;;;;;;;9.65;6.47;;;11.90;99.90;;;;;;5070596;28;20475;-52
2022/10/11 05:37:11;;;;;;;14.70;8.50;;;11.90;99.90;;;;;;5069190;28;20472;-55
2022/10/11 05:39:37;;;;;;;15.07;8.27;;;12.00;99.90;;;;;;5070644;28;20119;-56
2022/10/11 05:42:02;;;;;;;10.07;7.38;;;12.00;99.90;;;;;;5070583;28;20104;-52
2022/10/11 05:44:28;;;;;;;13.95;8.68;;;12.00;99.90;;;;;;5069188;28;20115;-54
2022/10/11 05:46:54;;;;;;;11.95;8.13;;;12.00;99.90;;;;;;5070432;28;20514;-54
2022/10/11 05:49:19;;;;;;;13.98;8.18;;;12.10;99.90;;;;;;5069231;28;20024;-55
2022/10/11 05:51:45;;;;;;;16.23;8.52;;;12.20;99.90;;;;;;5070501;28;20074;-54
2022/10/11 05:54:11;;;;;;;16.17;8.60;;;12.20;99.90;;;;;;5070224;28;20430;-56
2022/10/11 05:56:36;;;;;;;12.70;8.13;;;12.10;99.90;;;;;;5070874;28;20009;-55
2022/10/11 05:59:03;;;;;;;14.82;7.97;;;12.10;99.90;;;;;;5069932;28;20025;-54
2022/10/11 06:01:29;;;;;;;17.20;12.00;;;12.20;99.90;;;;;;5070565;28;20028;-53
2022/10/11 06:03:55;;;;;;;18.55;8.80;;;12.20;99.90;;;;;;5070152;28;20021;-54
2022/10/11 06:06:21;;;;;;;19.13;9.75;;;12.30;99.90;;;;;;5069162;28;20035;-54
2022/10/11 06:08:47;;;;;;;15.45;9.95;;;12.30;99.90;;;;;;5070083;28;20048;-55
2022/10/11 06:11:21;;;;;;;15.30;9.70;;;12.40;99.90;;;;;;5070271;28;20027;-53
2022/10/11 06:13:47;;;;;;;13.98;7.85;;;12.50;99.90;;;;;;5070306;28;20033;-53
2022/10/11 06:16:13;;;;;;;13.27;8.82;;;12.50;99.90;;;;;;5070247;28;20028;-53
2022/10/11 06:18:39;;;;;;;13.57;9.15;;;12.50;99.90;;;;;;5070167;28;20434;-55
2022/10/11 06:21:05;;;;;;;13.20;8.93;;;12.60;99.90;;;;;;5070054;28;20320;-53
2022/10/11 06:23:31;;;;;;;10.57;7.50;;;12.60;99.90;;;;;;5070180;28;20070;-55
2022/10/11 06:26:04;;;;;;;26.42;7.72;;;12.70;99.90;;;;;;5070164;28;20021;-54
2022/10/11 06:28:30;;;;;;;9.50;8.02;;;12.70;99.90;;;;;;5069910;28;20033;-53
2022/10/11 06:30:56;;;;;;;11.77;7.32;;;12.70;99.90;;;;;;5070014;28;20106;-54
2022/10/11 06:33:23;;;;;;;8.32;6.93;;;12.80;99.90;;;;;;5070165;28;20031;-53
2022/10/11 06:35:49;;;;;;;10.32;7.80;;;12.90;99.90;;;;;;5070086;28;20028;-55
2022/10/11 06:38:15;;;;;;;18.52;8.10;;;12.90;99.90;;;;;;5069724;28;20472;-55
2022/10/11 06:40:41;;;;;;;11.15;7.82;;;12.90;99.90;;;;;;5070166;28;20056;-55
2022/10/11 06:43:06;;;;;;;11.13;7.70;;;12.90;99.90;;;;;;5069816;28;20029;-55
2022/10/11 06:45:32;;;;;;;12.50;7.35;;;13.00;99.90;;;;;;5069909;28;20442;-56
2022/10/11 06:47:58;;;;;;;15.25;7.68;;;13.00;99.90;;;;;;5069734;28;20051;-53
2022/10/11 06:50:23;;;;;;;14.40;7.50;;;13.20;99.90;;;;;;5069955;28;20028;-55
2022/10/11 06:52:49;;;;;;;19.73;7.75;;;13.30;99.90;;;;;;5069676;28;20036;-55
2022/10/11 06:55:14;;;;;;;12.55;6.97;;;13.40;99.90;;;;;;5069704;28;20066;-56
2022/10/11 06:57:40;;;;;;;14.60;7.00;;;13.50;99.90;;;;;;5070027;28;20077;-55
2022/10/11 07:00:06;;;;;;;7.65;6.70;;;13.50;99.90;;;;;;5069841;28;20044;-56
2022/10/11 07:02:32;;;;;;;14.52;6.95;;;13.60;99.90;;;;;;5069698;28;20434;-56
2022/10/11 07:04:58;;;;;;;9.23;6.38;;;13.70;99.90;;;;;;5068382;28;20073;-55
2022/10/11 07:07:23;;;;;;;9.05;5.72;;;13.90;99.90;;;;;;5069782;28;20059;-52
2022/10/11 07:09:49;;;;;;;9.93;6.35;;;14.10;99.90;;;;;;5069643;28;20048;-54
2022/10/11 07:12:15;;;;;;;11.32;6.32;;;14.10;99.90;;;;;;5073027;28;20021;-56
2022/10/11 07:14:41;;;;;;;11.88;6.63;;;14.20;99.90;;;;;;5073415;28;20208;-56
2022/10/11 07:17:07;;;;;;;13.23;6.05;;;14.40;99.90;;;;;;5073340;28;20021;-55
2022/10/11 07:19:32;;;;;;;8.55;5.97;;;14.40;99.90;;;;;;5073263;28;20025;-55
2022/10/11 07:21:58;;;;;;;10.70;7.03;;;14.40;99.90;;;;;;5072869;28;20031;-56
2022/10/11 07:24:24;;;;;;;13.10;6.00;;;14.50;99.90;;;;;;5073266;28;20020;-57
2022/10/11 07:26:49;;;;;;;9.15;5.70;;;14.60;99.90;;;;;;5072049;28;20159;-56
2022/10/11 07:29:15;;;;;;;8.63;6.07;;;14.60;99.90;;;;;;5072869;28;20024;-54
2022/10/11 07:31:42;;;;;;;10.68;5.63;;;14.70;99.90;;;;;;5073047;28;20020;-54
2022/10/11 07:34:08;;;;;;;17.52;6.93;;;14.80;99.90;;;;;;5073036;28;20024;-54
2022/10/11 07:36:35;;;;;;;10.40;5.43;;;14.80;99.90;;;;;;5073027;28;20024;-54
2022/10/11 07:39:03;;;;;;;11.35;5.80;;;15.00;99.90;;;;;;5072768;28;20025;-55
2022/10/11 07:41:29;;;;;;;12.45;5.47;;;15.00;99.90;;;;;;5072953;28;20081;-56
2022/10/11 07:43:55;;;;;;;15.27;6.43;;;15.10;99.90;;;;;;5072884;28;20036;-57
2022/10/11 07:46:20;;;;;;;15.40;5.05;;;15.20;99.90;;;;;;5072954;28;20107;-57
2022/10/11 07:48:48;;;;;;;9.02;6.45;;;15.30;99.90;;;;;;5072645;28;20024;-55
2022/10/11 07:51:20;;;;;;;7.85;4.88;;;15.70;99.90;;;;;;5072682;28;20042;-53
2022/10/11 07:53:48;;;;;;;7.85;5.70;;;15.70;99.90;;;;;;5072887;28;20013;-54
2022/10/11 07:56:17;;;;;;;14.43;6.28;;;15.70;99.90;;;;;;5072531;28;20020;-52
2022/10/11 07:58:43;;;;;;;15.50;5.43;;;15.70;99.90;;;;;;5072678;28;20039;-52
2022/10/11 08:01:10;;;;;;;13.50;5.47;;;15.50;99.90;;;;;;5073038;28;20028;-54
2022/10/11 08:03:36;;;;;;;13.50;5.95;;;15.60;99.90;;;;;;5072522;28;20029;-55
2022/10/11 08:06:05;;;;;;;10.13;5.65;;;15.60;99.90;;;;;;5072411;28;20025;-53
2022/10/11 08:08:31;;;;;;;14.05;5.70;;;15.50;99.90;;;;;;5072253;28;20076;-56
2022/10/11 08:10:57;;;;;;;14.50;6.47;;;15.50;99.90;;;;;;5072308;28;20056;-55
2022/10/11 08:13:23;;;;;;;9.13;6.13;;;15.50;99.90;;;;;;5072251;28;20025;-55
2022/10/11 08:15:49;;;;;;;32.60;7.07;;;15.50;99.90;;;;;;5072594;28;20016;-55
2022/10/11 08:18:15;;;;;;;20.33;7.03;;;15.50;99.90;;;;;;5072349;28;20044;-52
2022/10/11 08:20:40;;;;;;;7.68;6.13;;;15.50;99.90;;;;;;5072182;28;20024;-53
2022/10/11 08:23:08;;;;;;;9.65;6.43;;;15.60;99.90;;;;;;5071128;28;20036;-53
2022/10/11 08:25:42;;;;;;;16.45;7.28;;;15.50;99.90;;;;;;5072136;28;20029;-52
2022/10/11 08:28:09;;;;;;;11.43;7.45;;;15.50;99.90;;;;;;5071850;28;20433;-56
2022/10/11 08:30:35;;;;;;;13.43;7.25;;;15.50;99.90;;;;;;5071768;28;20056;-56
2022/10/11 08:33:06;;;;;;;14.57;7.40;;;15.60;99.90;;;;;;5071994;28;20371;-53
2022/10/11 08:35:31;;;;;;;13.63;7.05;;;15.60;99.90;;;;;;5071908;28;20024;-56
2022/10/11 08:37:57;;;;;;;15.05;7.22;;;15.60;99.90;;;;;;5071645;28;20360;-54
2022/10/11 08:40:23;;;;;;;18.35;7.25;;;15.50;99.90;;;;;;5071913;28;20025;-53
2022/10/11 08:43:05;;;;;;;16.95;7.88;;;15.50;99.90;;;;;;5070572;28;20017;-53
2022/10/11 08:45:51;;;;;;;12.27;8.15;;;15.50;99.90;;;;;;5071599;28;20383;-51
2022/10/11 08:48:22;;;;;;;14.77;8.38;;;15.50;99.90;;;;;;5071460;28;20393;-54
2022/10/11 08:50:51;;;;;;;17.25;8.88;;;15.60;99.90;;;;;;5071534;28;20025;-55
2022/10/11 08:53:25;;;;;;;13.82;9.88;;;15.40;99.90;;;;;;5071861;28;20044;-51
2022/10/11 08:55:53;;;;;;;19.23;9.35;;;15.50;99.90;;;;;;5071533;28;20025;-54
2022/10/11 08:58:36;;;;;;;21.30;9.50;;;15.60;99.90;;;;;;5071315;28;20028;-54
2022/10/11 09:01:02;;;;;;;20.30;8.68;;;15.60;99.90;;;;;;5071425;28;20413;-53
2022/10/11 09:03:43;;;;;;;14.40;8.13;;;15.70;99.90;;;;;;5071205;28;20017;-52
2022/10/11 09:06:36;;;;;;;21.08;9.00;;;15.80;99.90;;;;;;5071031;28;20016;-53
2022/10/11 09:09:25;;;;;;;17.83;8.95;;;15.90;99.90;;;;;;5070784;28;20066;-55
2022/10/11 09:12:21;;;;;;;23.77;10.98;;;16.00;99.90;;;;;;5071764;28;20430;-53
2022/10/11 09:15:13;;;;;;;15.15;9.90;;;16.00;99.90;;;;;;5071285;28;20029;-53
2022/10/11 09:17:56;;;;;;;17.55;8.63;;;16.00;99.90;;;;;;5071347;28;20025;-53
2022/10/11 09:20:47;;;;;;;19.42;7.72;;;16.30;99.90;;;;;;5071215;28;20028;-54
2022/10/11 09:23:18;;;;;;;18.20;7.68;;;16.40;99.90;;;;;;5070845;28;20032;-54
2022/10/11 09:26:09;;;;;;;11.23;7.63;;;16.30;99.90;;;;;;5070970;28;20100;-52
2022/10/11 09:29:26;;;;;;;11.65;7.53;;;16.40;99.90;;;;;;5070670;28;20502;-54
2022/10/11 09:31:54;;;;;;;11.93;7.53;;;16.40;99.90;;;;;;5067540;28;20074;-54
2022/10/11 09:34:25;;;;;;;15.35;7.18;;;16.40;99.90;;;;;;5064969;28;20123;-53
2022/10/11 09:37:20;;;;;;;13.15;7.18;;;16.40;99.90;;;;;;5070821;28;20421;-54
2022/10/11 09:39:56;;;;;;;12.85;8.40;;;16.40;99.90;;;;;;5071361;28;20025;-55
2022/10/11 09:42:22;;;;;;;14.50;7.25;;;16.30;99.90;;;;;;5070498;28;20439;-53
2022/10/11 09:44:49;;;;;;;13.95;6.70;;;16.40;99.90;;;;;;5070523;28;20131;-55
2022/10/11 09:47:27;;;;;;;9.85;6.70;;;16.50;99.90;;;;;;5068831;28;20475;-55
2022/10/11 09:50:05;;;;;;;12.93;6.90;;;16.60;99.90;;;;;;5069181;28;20039;-55
2022/10/11 09:52:33;;;;;;;12.50;6.85;;;16.60;99.90;;;;;;5070591;28;20077;-54
2022/10/11 09:55:01;;;;;;;14.25;6.57;;;16.60;99.90;;;;;;5070510;28;20398;-57
2022/10/11 09:57:34;;;;;;;10.82;7.38;;;16.70;99.90;;;;;;5070403;28;20078;-54
2022/10/11 10:00:00;;;;;;;;;;;16.80;99.90;;;;;;5070753;28;20024;-53
2022/10/11 10:02:28;;;;;;;11.27;6.22;;;16.90;99.90;;;;;;5069120;28;20113;-55
2022/10/11 10:05:03;;;;;;;10.98;6.90;;;16.90;99.90;;;;;;5070304;28;20024;-55
2022/10/11 10:07:30;;;;;;;10.38;6.28;;;17.00;99.90;;;;;;5070344;28;20023;-56
2022/10/11 10:09:57;;;;;;;6.88;5.70;;;17.10;99.90;;;;;;5069973;28;20599;-52
2022/10/11 10:12:29;;;;;;;9.32;5.75;;;17.10;99.90;;;;;;5070439;28;20078;-55
2022/10/11 10:14:58;;;;;;;8.32;5.68;;;17.30;99.90;;;;;;5070002;28;20020;-55
2022/10/11 10:17:23;;;;;;;10.75;5.97;;;17.50;99.90;;;;;;5070234;28;20024;-55
2022/10/11 10:19:54;;;;;;;11.43;5.07;;;18.00;99.90;;;;;;5070399;28;20031;-53
2022/10/11 10:22:27;;;;;;;6.47;4.28;;;19.10;99.90;;;;;;5070114;28;20024;-57
2022/10/11 10:24:53;;;;;;;8.82;4.45;;;20.50;99.90;;;;;;5070007;28;20100;-55
2022/10/11 10:27:23;;;;;;;11.27;4.72;;;20.90;99.90;;;;;;5070242;28;20028;-55
2022/10/11 10:30:21;;;;;;;24.33;5.03;;;20.70;99.90;;;;;;5069907;28;20396;-55
2022/10/11 10:33:03;;;;;;;15.50;4.63;;;20.40;99.90;;;;;;5068731;28;20433;-54
2022/10/11 10:35:44;;;;;;;8.45;4.40;;;19.20;99.90;;;;;;5070001;28;20028;-56
2022/10/11 10:38:28;;;;;;;8.32;5.35;;;19.00;99.90;;;;;;5069965;28;20507;-56
2022/10/11 10:41:01;;;;;;;8.45;3.78;;;19.30;99.90;;;;;;5069916;28;20021;-56
2022/10/11 10:43:32;;;;;;;17.30;5.70;;;19.40;99.90;;;;;;5070255;28;20323;-55
2022/10/11 10:46:02;;;;;;;8.20;4.15;;;19.30;99.90;;;;;;5071381;28;20574;-54
2022/10/11 10:48:36;;;;;;;8.48;4.60;;;20.00;99.90;;;;;;5073957;28;20025;-56
2022/10/11 10:51:29;;;;;;;8.05;3.80;;;21.10;99.90;;;;;;5073825;28;20028;-54
2022/10/11 10:54:23;;;;;;;7.18;3.67;;;23.40;96.80;;;;;;5073280;28;20504;-57
2022/10/11 10:56:57;;;;;;;12.48;4.20;;;22.90;95.30;;;;;;5073776;28;20157;-55
2022/10/11 10:59:53;;;;;;;9.20;3.50;;;22.90;95.70;;;;;;5073782;28;20055;-58
2022/10/11 11:02:24;;;;;;;10.20;4.38;;;23.50;94.90;;;;;;5073570;28;20320;-53
2022/10/11 11:05:13;;;;;;;11.40;3.90;;;24.20;94.20;;;;;;5073470;28;20029;-56
2022/10/11 11:07:48;;;;;;;11.80;3.72;;;26.10;90.80;;;;;;5073416;28;20394;-57
2022/10/11 11:10:25;;;;;;;7.47;3.45;;;25.70;85.80;;;;;;5073062;28;20041;-58
2022/10/11 11:13:17;;;;;;;9.30;3.22;;;25.20;88.40;;;;;;5073593;28;20021;-57
2022/10/11 11:16:09;;;;;;;11.18;3.72;;;25.30;87.20;;;;;;5072200;28;20304;-57
2022/10/11 11:18:52;;;;;;;8.88;3.85;;;24.60;87.90;;;;;;5072823;28;20033;-56
2022/10/11 11:21:30;;;;;;;;;;;23.50;90.80;;;;;;5072498;28;20453;-57
2022/10/11 11:24:09;;;;;;;8.45;4.05;;;23.30;91.20;;;;;;5073011;28;20596;-58
2022/10/11 11:27:13;;;;;;;9.93;3.72;;;23.60;91.30;;;;;;5073290;28;20024;-57
2022/10/11 11:29:57;;;;;;;15.27;4.03;;;24.20;90.60;;;;;;5070250;28;20064;-58
2022/10/11 11:32:51;;;;;;;11.98;3.70;;;25.20;87.10;;;;;;5070453;28;20492;-57
2022/10/11 11:35:26;;;;;;;9.02;3.00;;;27.70;83.10;;;;;;5070504;28;20496;-58
2022/10/11 11:37:59;;;;;;;8.23;2.72;;;28.40;78.30;;;;;;5071784;28;20336;-58
2022/10/11 11:40:39;;;;;;;11.80;3.85;;;30.40;70.90;;;;;;5072973;28;20031;-57
2022/10/11 11:43:18;;;;;;;8.65;3.55;;;30.50;66.80;;;;;;5072863;28;20491;-57
2022/10/11 11:45:48;;;;;;;6.22;3.28;;;29.10;64.20;;;;;;5071743;28;20392;-57
2022/10/11 11:48:24;;;;;;;16.05;3.90;;;27.80;67.50;;;;;;5072935;28;20466;-57
2022/10/11 11:51:17;;;;;;;9.40;3.60;;;26.00;72.30;;;;;;5072734;28;20025;-56
2022/10/11 11:53:53;;;;;;;15.07;4.93;;;24.70;75.20;;;;;;5072908;28;20074;-58
2022/10/11 11:56:26;;;;;;;16.48;3.90;;;23.10;80.40;;;;;;5072563;28;20043;-57
2022/10/11 11:59:13;;;;;;;15.48;3.65;;;22.70;82.00;;;;;;5071913;28;20032;-57
2022/10/11 12:02:03;;;;;;;7.18;3.58;;;22.30;84.00;;;;;;5072620;28;20038;-57
2022/10/11 12:04:34;;;;;;;18.85;5.75;;;22.20;84.00;;;;;;5072706;28;20017;-56
2022/10/11 12:07:07;;;;;;;14.60;5.45;;;21.20;87.60;;;;;;5072228;28;20029;-55
2022/10/11 12:09:35;;;;;;;11.68;6.00;;;20.70;90.30;;;;;;5072583;28;20369;-56
2022/10/11 12:12:04;;;;;;;14.95;6.38;;;20.30;93.90;;;;;;5072355;28;20025;-55
2022/10/11 12:14:34;;;;;;;11.70;5.93;;;19.60;96.60;;;;;;5072628;28;20024;-57
2022/10/11 12:17:20;;;;;;;9.68;6.60;;;18.90;99.90;;;;;;5072139;28;20027;-54
2022/10/11 12:20:23;;;;;;;15.57;6.10;;;18.50;99.90;;;;;;5072223;28;20048;-53
2022/10/11 12:22:49;;;;;;;9.73;6.55;;;17.90;99.90;;;;;;5071816;28;20062;-56
2022/10/11 12:25:14;;;;;;;17.95;8.13;;;17.70;99.90;;;;;;5072018;28;20577;-54
2022/10/11 12:27:46;;;;;;;11.15;7.88;;;17.40;99.90;;;;;;5071922;28;20058;-54
2022/10/11 12:30:43;;;;;;;15.82;9.20;;;17.30;99.90;;;;;;5071891;28;20032;-54
2022/10/11 12:33:31;;;;;;;13.15;8.15;;;16.90;99.90;;;;;;5071776;28;20020;-54
2022/10/11 12:36:01;;;;;;;18.40;8.82;;;16.80;99.90;;;;;;5071795;28;20049;-54
2022/10/11 12:38:36;;;;;;;11.73;8.98;;;16.70;99.90;;;;;;5071733;28;20611;-55
2022/10/11 12:41:12;;;;;;;25.30;13.05;;;16.60;99.90;;;;;;5071901;28;20109;-57
2022/10/11 12:43:46;;;;;;;19.45;11.02;;;16.60;99.90;;;;;;5071799;28;20364;-55
2022/10/11 12:46:27;;;;;;;17.85;10.70;;;16.80;99.90;;;;;;5071525;28;20027;-56
2022/10/11 12:49:08;;;;;;;15.98;10.02;;;16.60;99.90;;;;;;5071482;28;20182;-56
2022/10/11 12:51:59;;;;;;;15.07;10.13;;;16.40;99.90;;;;;;5071671;28;20239;-56
2022/10/11 12:54:43;;;;;;;19.02;10.02;;;16.50;99.90;;;;;;5071539;28;20017;-56
2022/10/11 12:57:27;;;;;;;25.55;10.55;;;16.50;99.90;;;;;;5071334;28;20028;-56
2022/10/11 12:59:53;;;;;;;16.52;9.77;;;16.70;99.90;;;;;;5071344;28;20062;-56
2022/10/11 13:02:41;;;;;;;16.45;10.80;;;16.70;99.90;;;;;;5071446;28;20102;-53